createdAt,value
2023-02-23T00:01:18.417Z,-3.20
2023-02-23T00:03:46.262Z,-3.20
2023-02-23T00:06:13.710Z,-3.20
2023-02-23T00:08:40.610Z,-3.20
2023-02-23T00:11:08.618Z,-3.10
2023-02-23T00:13:37.622Z,-3.10
2023-02-23T00:16:08.362Z,-3.00
2023-02-23T00:18:45.089Z,-3.00
2023-02-23T00:21:15.197Z,-3.00
2023-02-23T00:23:42.875Z,-3.00
2023-02-23T00:26:09.604Z,-3.10
2023-02-23T00:28:36.241Z,-3.00
2023-02-23T00:31:04.088Z,-3.00
2023-02-23T00:33:31.566Z,-3.00
2023-02-23T00:36:03.384Z,-3.00
2023-02-23T00:38:34.948Z,-3.00
2023-02-23T00:41:14.307Z,-3.00
2023-02-23T00:43:50.833Z,-3.10
2023-02-23T00:46:18.999Z,-3.10
2023-02-23T00:48:46.008Z,-3.10
2023-02-23T00:51:12.828Z,-3.10
2023-02-23T00:53:39.845Z,-3.10
2023-02-23T00:56:07.245Z,-3.10
2023-02-23T00:58:34.253Z,-3.10
2023-02-23T01:01:01.125Z,-3.10
2023-02-23T01:03:29.538Z,-3.10
2023-02-23T01:06:00.151Z,-3.20
2023-02-23T01:08:27.939Z,-3.20
2023-02-23T01:10:54.554Z,-3.20
2023-02-23T01:13:21.771Z,-3.20
2023-02-23T01:15:49.019Z,-3.20
2023-02-23T01:18:16.878Z,-3.20
2023-02-23T01:20:43.980Z,-3.30
2023-02-23T01:23:12.647Z,-3.20
2023-02-23T01:25:39.851Z,-3.30
2023-02-23T01:28:06.559Z,-3.30
2023-02-23T01:30:33.284Z,-3.30
2023-02-23T01:33:00.935Z,-3.30
2023-02-23T01:35:27.710Z,-3.30
2023-02-23T01:37:54.501Z,-3.30
2023-02-23T01:40:30.928Z,-3.40
2023-02-23T01:43:11.840Z,-3.40
2023-02-23T01:45:40.378Z,-3.40
2023-02-23T01:48:18.283Z,-3.40
2023-02-23T01:50:52.564Z,-3.40
2023-02-23T01:53:21.567Z,-3.40
2023-02-23T01:55:49.943Z,-3.40
2023-02-23T01:58:19.789Z,-3.40
2023-02-23T02:00:51.477Z,-3.50
2023-02-23T02:03:22.989Z,-3.50
2023-02-23T02:05:50.592Z,-3.50
2023-02-23T02:08:19.029Z,-3.50
2023-02-23T02:10:47.297Z,-3.40
2023-02-23T02:13:18.244Z,-3.40
2023-02-23T02:16:07.225Z,-3.40
2023-02-23T02:18:38.215Z,-3.40
2023-02-23T02:21:23.965Z,-3.40
2023-02-23T02:24:01.908Z,-3.40
2023-02-23T02:26:31.739Z,-3.40
2023-02-23T02:28:59.642Z,-3.40
2023-02-23T02:31:32.211Z,-3.40
2023-02-23T02:34:01.816Z,-3.40
2023-02-23T02:36:47.524Z,-3.40
2023-02-23T02:39:23.864Z,-3.40
2023-02-23T02:42:00.003Z,-3.30
2023-02-23T02:44:26.627Z,-3.30
2023-02-23T02:46:57.982Z,-3.30
2023-02-23T02:49:32.819Z,-3.30
2023-02-23T02:52:18.788Z,-3.30
2023-02-23T02:54:48.504Z,-3.30
2023-02-23T02:57:15.616Z,-3.20
2023-02-23T03:00:02.037Z,-3.20
2023-02-23T03:02:48.325Z,-3.20
2023-02-23T03:05:34.603Z,-3.30
2023-02-23T03:08:27.989Z,-3.20
2023-02-23T03:11:24.595Z,-3.20
2023-02-23T03:14:15.849Z,-3.20
2023-02-23T03:17:07.176Z,-3.20
2023-02-23T03:19:56.389Z,-3.20
2023-02-23T03:22:46.703Z,-3.20
2023-02-23T03:25:52.086Z,-3.20
2023-02-23T03:28:39.818Z,-3.20
2023-02-23T03:31:38.640Z,-3.20
2023-02-23T03:34:35.799Z,-3.20
2023-02-23T03:37:24.885Z,-3.20
2023-02-23T03:40:13.987Z,-3.20
2023-02-23T03:42:59.775Z,-3.20
2023-02-23T03:45:46.449Z,-3.20
2023-02-23T03:48:32.476Z,-3.20
2023-02-23T03:51:20.567Z,-3.20
2023-02-23T03:54:19.434Z,-3.20
2023-02-23T03:57:07.119Z,-3.10
2023-02-23T03:59:55.412Z,-3.10
2023-02-23T04:02:41.536Z,-3.10
2023-02-23T04:05:29.628Z,-3.10
2023-02-23T04:08:16.045Z,-3.10
2023-02-23T04:11:07.655Z,-3.10
2023-02-23T04:13:35.084Z,-3.00
2023-02-23T04:16:08.908Z,-3.00
2023-02-23T04:18:36.774Z,-3.00
2023-02-23T04:21:03.849Z,-3.00
2023-02-23T04:23:31.084Z,-2.90
2023-02-23T04:25:58.180Z,-3.00
2023-02-23T04:28:26.515Z,-3.00
2023-02-23T04:30:53.554Z,-3.00
2023-02-23T04:33:21.659Z,-3.00
2023-02-23T04:35:48.628Z,-3.00
2023-02-23T04:38:15.284Z,-3.00
2023-02-23T04:40:41.972Z,-3.00
2023-02-23T04:43:09.543Z,-3.00
2023-02-23T04:45:36.503Z,-3.00
2023-02-23T04:48:03.313Z,-3.10
2023-02-23T04:50:32.496Z,-3.00
2023-02-23T04:52:59.461Z,-3.00
2023-02-23T04:55:26.526Z,-3.00
2023-02-23T04:57:57.523Z,-3.00
2023-02-23T05:00:24.286Z,-3.10
2023-02-23T05:02:51.360Z,-3.10
2023-02-23T05:05:18.181Z,-3.00
2023-02-23T05:07:44.893Z,-3.00
2023-02-23T05:10:11.747Z,-3.00
2023-02-23T05:12:38.549Z,-2.90
2023-02-23T05:15:05.533Z,-2.90
2023-02-23T05:17:32.287Z,-2.90
2023-02-23T05:19:59.048Z,-2.90
2023-02-23T05:22:25.764Z,-2.90
2023-02-23T05:24:52.438Z,-2.90
2023-02-23T05:27:19.205Z,-2.80
2023-02-23T05:29:45.888Z,-2.80
2023-02-23T05:32:12.720Z,-2.80
2023-02-23T05:34:39.415Z,-2.80
2023-02-23T05:37:06.461Z,-2.80
2023-02-23T05:39:33.204Z,-2.80
2023-02-23T05:41:59.901Z,-2.80
2023-02-23T05:44:26.765Z,-2.70
2023-02-23T05:46:53.571Z,-2.70
2023-02-23T05:49:20.291Z,-2.60
2023-02-23T05:51:46.951Z,-2.60
2023-02-23T05:54:14.090Z,-2.60
2023-02-23T05:56:42.199Z,-2.60
2023-02-23T05:59:08.996Z,-2.60
2023-02-23T06:01:35.901Z,-2.60
2023-02-23T06:04:04.537Z,-2.60
2023-02-23T06:06:31.922Z,-2.60
2023-02-23T06:08:58.637Z,-2.50
2023-02-23T06:11:25.379Z,-2.50
2023-02-23T06:13:52.404Z,-2.50
2023-02-23T06:16:19.600Z,-2.50
2023-02-23T06:18:46.687Z,-2.50
2023-02-23T06:21:13.386Z,-2.50
2023-02-23T06:23:40.082Z,-2.40
2023-02-23T06:26:07.736Z,-2.40
2023-02-23T06:28:35.022Z,-2.40
2023-02-23T06:31:01.816Z,-2.30
2023-02-23T06:33:28.599Z,-2.40
2023-02-23T06:35:55.741Z,-2.30
2023-02-23T06:38:22.617Z,-2.30
2023-02-23T06:40:49.629Z,-2.30
2023-02-23T06:43:16.339Z,-2.30
2023-02-23T06:45:43.166Z,-2.30
2023-02-23T06:48:10.507Z,-2.30
2023-02-23T06:50:37.250Z,-2.20
2023-02-23T06:53:04.065Z,-2.20
2023-02-23T06:55:30.907Z,-2.20
2023-02-23T06:57:58.304Z,-2.20
2023-02-23T07:00:25.002Z,-2.10
2023-02-23T07:02:51.722Z,-2.10
2023-02-23T07:05:18.479Z,-2.10
2023-02-23T07:07:45.630Z,-2.10
2023-02-23T07:10:12.533Z,-2.10
2023-02-23T07:12:39.274Z,-2.00
2023-02-23T07:15:06.274Z,-1.90
2023-02-23T07:17:33.041Z,-1.90
2023-02-23T07:19:59.754Z,-1.90
2023-02-23T07:22:29.480Z,-1.90
2023-02-23T07:24:59.186Z,-1.90
2023-02-23T07:27:27.268Z,-1.90
2023-02-23T07:29:54.032Z,-1.80
2023-02-23T07:32:20.820Z,-1.80
2023-02-23T07:34:47.908Z,-2.00
2023-02-23T07:37:14.749Z,-1.80
2023-02-23T07:39:41.688Z,-1.80
2023-02-23T07:42:08.427Z,-1.70
2023-02-23T07:44:35.079Z,-1.70
2023-02-23T07:47:01.786Z,-1.70
2023-02-23T07:49:28.485Z,-1.70
2023-02-23T07:51:55.467Z,-1.70
2023-02-23T07:54:22.783Z,-1.70
2023-02-23T07:56:49.565Z,-1.60
2023-02-23T07:59:16.700Z,-1.60
2023-02-23T08:01:43.446Z,-1.60
2023-02-23T08:04:10.331Z,-1.60
2023-02-23T08:06:37.102Z,-1.50
2023-02-23T08:09:04.526Z,-1.50
2023-02-23T08:11:31.505Z,-1.40
2023-02-23T08:14:00.228Z,-1.40
2023-02-23T08:16:28.096Z,-1.30
2023-02-23T08:18:56.718Z,-1.30
2023-02-23T08:21:23.356Z,-1.20
2023-02-23T08:23:50.094Z,-1.10
2023-02-23T08:26:16.894Z,-1.10
2023-02-23T08:28:45.812Z,-1.00
2023-02-23T08:31:13.736Z,-1.80
2023-02-23T08:33:40.626Z,-0.90
2023-02-23T08:36:07.670Z,-0.90
2023-02-23T08:38:36.636Z,-0.80
2023-02-23T08:41:04.064Z,-0.60
2023-02-23T08:43:31.005Z,-0.60
2023-02-23T08:45:57.789Z,-0.60
2023-02-23T08:48:25.188Z,-0.60
2023-02-23T08:50:56.945Z,-0.60
2023-02-23T08:53:25.575Z,-0.50
2023-02-23T08:55:59.378Z,-0.40
2023-02-23T08:58:26.520Z,-0.40
2023-02-23T09:00:53.298Z,-0.30
2023-02-23T09:03:21.315Z,-0.30
2023-02-23T09:05:48.141Z,-0.30
2023-02-23T09:08:15.267Z,-0.30
2023-02-23T09:10:43.906Z,-0.30
2023-02-23T09:13:11.402Z,-0.30
2023-02-23T09:15:40.843Z,-0.30
2023-02-23T09:18:11.662Z,-0.30
2023-02-23T09:20:41.070Z,-0.30
2023-02-23T09:23:07.781Z,-0.20
2023-02-23T09:25:34.461Z,-0.20
2023-02-23T09:28:01.143Z,-0.30
2023-02-23T09:30:27.982Z,-0.20
2023-02-23T09:32:55.268Z,-0.20
2023-02-23T09:35:23.179Z,-0.20
2023-02-23T09:37:55.150Z,-0.20
2023-02-23T09:40:26.721Z,-0.20
2023-02-23T09:43:00.267Z,-0.10
2023-02-23T09:45:33.413Z,0.00
2023-02-23T09:48:00.299Z,0.00
2023-02-23T09:50:28.274Z,0.10
2023-02-23T09:53:03.936Z,0.00
2023-02-23T09:55:31.872Z,0.10
2023-02-23T09:58:03.260Z,0.00
2023-02-23T10:00:30.989Z,0.50
2023-02-23T10:03:04.266Z,0.10
2023-02-23T10:05:34.253Z,0.20
2023-02-23T10:08:09.320Z,0.10
2023-02-23T10:10:51.108Z,0.20
2023-02-23T10:13:20.850Z,0.20
2023-02-23T10:16:01.073Z,0.20
2023-02-23T10:18:45.695Z,0.30
2023-02-23T10:21:32.125Z,0.30
2023-02-23T10:24:01.611Z,0.40
2023-02-23T10:26:32.358Z,0.40
2023-02-23T10:28:59.893Z,0.40
2023-02-23T10:31:27.076Z,0.40
2023-02-23T10:33:55.756Z,0.40
2023-02-23T10:36:31.882Z,0.40
2023-02-23T10:38:58.600Z,0.30
2023-02-23T10:41:25.589Z,0.30
2023-02-23T10:43:52.526Z,0.30
2023-02-23T10:46:22.626Z,0.20
2023-02-23T10:48:50.832Z,0.20
2023-02-23T10:51:20.157Z,0.20
2023-02-23T10:53:46.960Z,0.20
2023-02-23T10:56:15.665Z,0.20
2023-02-23T10:58:49.519Z,0.30
2023-02-23T11:01:49.139Z,0.20
2023-02-23T11:04:25.181Z,0.20
2023-02-23T11:07:05.384Z,0.20
2023-02-23T11:09:45.572Z,0.30
2023-02-23T11:12:26.220Z,0.20
2023-02-23T11:14:54.250Z,0.10
2023-02-23T11:17:26.459Z,0.20
2023-02-23T11:19:58.708Z,0.10
2023-02-23T11:22:27.062Z,0.10
2023-02-23T11:24:55.531Z,0.10
2023-02-23T11:27:26.347Z,0.10
2023-02-23T11:29:55.789Z,0.10
2023-02-23T11:32:33.653Z,0.20
2023-02-23T11:35:19.029Z,0.20
2023-02-23T11:37:45.886Z,0.30
2023-02-23T11:40:26.796Z,0.30
2023-02-23T11:42:54.842Z,0.20
2023-02-23T11:45:22.844Z,0.20
2023-02-23T11:47:51.649Z,0.30
2023-02-23T11:50:36.548Z,0.30
2023-02-23T11:53:13.071Z,0.30
2023-02-23T11:55:39.938Z,0.40
2023-02-23T11:58:23.326Z,0.40
2023-02-23T12:01:00.634Z,0.40
2023-02-23T12:03:28.836Z,0.40
2023-02-23T12:05:57.727Z,0.40
2023-02-23T12:08:44.740Z,0.40
2023-02-23T12:11:14.530Z,0.40
2023-02-23T12:13:47.602Z,0.50
2023-02-23T12:16:26.375Z,0.60
2023-02-23T12:18:57.585Z,0.60
2023-02-23T12:21:36.250Z,0.70
2023-02-23T12:24:23.193Z,0.80
2023-02-23T12:27:12.832Z,0.80
2023-02-23T12:29:51.314Z,0.90
2023-02-23T12:32:19.599Z,1.00
2023-02-23T12:34:58.451Z,1.10
2023-02-23T12:37:31.226Z,1.10
2023-02-23T12:40:02.530Z,1.10
2023-02-23T12:42:41.822Z,1.10
2023-02-23T12:45:16.795Z,1.20
2023-02-23T12:47:55.838Z,1.20
2023-02-23T12:50:39.240Z,1.20
2023-02-23T12:53:12.402Z,1.20
2023-02-23T12:55:47.274Z,1.10
2023-02-23T12:58:13.946Z,1.10
2023-02-23T13:00:40.648Z,1.20
2023-02-23T13:03:09.982Z,1.10
2023-02-23T13:05:41.361Z,1.10
2023-02-23T13:08:46.423Z,1.20
2023-02-23T13:11:19.689Z,1.20
2023-02-23T13:13:50.474Z,1.30
2023-02-23T13:16:21.845Z,1.20
2023-02-23T13:19:10.015Z,1.10
2023-02-23T13:21:39.650Z,1.10
2023-02-23T13:24:32.614Z,1.10
2023-02-23T13:27:17.839Z,1.20
2023-02-23T13:29:55.254Z,1.10
2023-02-23T13:32:26.308Z,1.10
2023-02-23T13:35:03.127Z,1.10
2023-02-23T13:37:41.240Z,1.20
2023-02-23T13:40:14.238Z,1.10
2023-02-23T13:42:40.928Z,1.20
2023-02-23T13:45:23.232Z,1.20
2023-02-23T13:47:55.578Z,1.10
2023-02-23T13:50:31.793Z,1.10
2023-02-23T13:53:01.311Z,1.10
2023-02-23T13:55:32.666Z,1.10
2023-02-23T13:58:15.307Z,1.00
2023-02-23T14:00:42.888Z,1.00
2023-02-23T14:03:21.190Z,1.00
2023-02-23T14:05:52.521Z,1.10
2023-02-23T14:08:23.974Z,1.00
2023-02-23T14:10:52.988Z,1.10
2023-02-23T14:13:21.110Z,1.10
2023-02-23T14:15:49.893Z,1.10
2023-02-23T14:18:20.876Z,1.20
2023-02-23T14:21:02.460Z,1.20
2023-02-23T14:23:32.606Z,1.20
2023-02-23T14:26:35.208Z,1.20
2023-02-23T14:29:22.048Z,1.20
2023-02-23T14:32:01.341Z,1.30
2023-02-23T14:34:47.188Z,1.30
2023-02-23T14:37:25.269Z,1.20
2023-02-23T14:39:53.817Z,1.20
2023-02-23T14:42:26.317Z,1.20
2023-02-23T14:44:56.704Z,1.30
2023-02-23T14:47:27.317Z,1.20
2023-02-23T14:49:57.173Z,1.20
2023-02-23T14:52:25.423Z,1.20
2023-02-23T14:54:52.695Z,1.20
2023-02-23T14:57:21.360Z,1.20
2023-02-23T14:59:59.913Z,1.20
2023-02-23T15:02:28.191Z,1.20
2023-02-23T15:04:55.411Z,1.30
2023-02-23T15:07:25.325Z,1.20
2023-02-23T15:09:53.614Z,1.20
2023-02-23T15:12:23.387Z,1.20
2023-02-23T15:14:50.330Z,1.30
2023-02-23T15:17:19.068Z,1.30
2023-02-23T15:19:46.584Z,1.30
2023-02-23T15:22:25.046Z,1.30
2023-02-23T15:24:51.836Z,1.30
2023-02-23T15:27:20.437Z,1.30
2023-02-23T15:29:47.203Z,1.30
2023-02-23T15:32:23.538Z,1.30
2023-02-23T15:34:55.592Z,1.30
2023-02-23T15:37:39.503Z,1.30
2023-02-23T15:40:09.029Z,1.30
2023-02-23T15:42:38.616Z,1.30
2023-02-23T15:45:14.999Z,1.30
2023-02-23T15:47:42.568Z,1.30
2023-02-23T15:50:09.488Z,1.40
2023-02-23T15:52:39.645Z,1.40
2023-02-23T15:55:10.142Z,1.40
2023-02-23T15:57:52.229Z,1.40
2023-02-23T16:00:37.389Z,1.40
2023-02-23T16:03:05.435Z,1.40
2023-02-23T16:05:46.569Z,1.40
2023-02-23T16:08:23.039Z,1.50
2023-02-23T16:10:52.142Z,1.50
2023-02-23T16:13:21.989Z,1.40
2023-02-23T16:15:50.044Z,1.50
2023-02-23T16:18:20.626Z,1.50
2023-02-23T16:20:48.763Z,1.50
2023-02-23T16:23:34.016Z,1.50
2023-02-23T16:26:06.733Z,1.50
2023-02-23T16:28:35.505Z,1.50
2023-02-23T16:31:06.887Z,1.60
2023-02-23T16:33:36.428Z,1.60
2023-02-23T16:36:14.131Z,1.60
2023-02-23T16:38:58.034Z,1.60
2023-02-23T16:41:25.918Z,1.60
2023-02-23T16:43:53.860Z,1.60
2023-02-23T16:46:23.220Z,1.60
2023-02-23T16:48:50.330Z,1.60
2023-02-23T16:51:18.151Z,1.60
2023-02-23T16:53:45.132Z,1.60
2023-02-23T16:56:13.553Z,1.50
2023-02-23T16:58:41.886Z,1.50
2023-02-23T17:01:10.556Z,1.40
2023-02-23T17:03:43.776Z,1.40
2023-02-23T17:06:14.243Z,1.30
2023-02-23T17:08:45.899Z,1.20
2023-02-23T17:11:19.583Z,1.20
2023-02-23T17:13:46.494Z,1.20
2023-02-23T17:16:13.643Z,1.10
2023-02-23T17:18:42.959Z,1.20
2023-02-23T17:21:11.827Z,1.10
2023-02-23T17:23:42.537Z,1.20
2023-02-23T17:26:10.450Z,1.10
2023-02-23T17:28:37.724Z,1.20
2023-02-23T17:31:05.131Z,1.20
2023-02-23T17:33:33.751Z,1.20
2023-02-23T17:36:01.410Z,1.20
2023-02-23T17:38:34.019Z,1.20
2023-02-23T17:41:01.576Z,1.20
2023-02-23T17:43:28.360Z,1.20
2023-02-23T17:45:55.951Z,1.10
2023-02-23T17:48:23.508Z,1.10
2023-02-23T17:50:58.635Z,1.10
2023-02-23T17:53:25.554Z,1.10
2023-02-23T17:55:52.623Z,1.10
2023-02-23T17:58:19.525Z,1.20
2023-02-23T18:00:46.669Z,1.10
2023-02-23T18:03:13.431Z,1.20
2023-02-23T18:05:40.235Z,1.20
2023-02-23T18:08:07.347Z,1.20
2023-02-23T18:10:37.676Z,1.20
2023-02-23T18:13:05.830Z,1.30
2023-02-23T18:15:33.364Z,1.30
2023-02-23T18:18:01.332Z,1.40
2023-02-23T18:20:28.916Z,1.40
2023-02-23T18:22:55.988Z,1.50
2023-02-23T18:25:26.276Z,1.50
2023-02-23T18:27:54.362Z,1.50
2023-02-23T18:30:25.197Z,1.50
2023-02-23T18:32:55.536Z,1.60
2023-02-23T18:35:22.364Z,1.60
2023-02-23T18:37:49.784Z,1.70
2023-02-23T18:40:22.073Z,1.80
2023-02-23T18:42:48.805Z,1.80
2023-02-23T18:45:15.864Z,1.80
2023-02-23T18:47:42.822Z,1.80
2023-02-23T18:50:12.767Z,1.80
2023-02-23T18:52:41.017Z,1.90
2023-02-23T18:55:08.364Z,1.90
2023-02-23T18:57:35.855Z,1.80
2023-02-23T19:00:10.582Z,1.90
2023-02-23T19:02:37.776Z,1.80
2023-02-23T19:05:04.909Z,1.80
2023-02-23T19:07:33.489Z,1.90
2023-02-23T19:10:03.245Z,1.90
2023-02-23T19:12:30.212Z,1.90
2023-02-23T19:14:58.389Z,1.90
2023-02-23T19:17:25.828Z,1.90
2023-02-23T19:19:55.715Z,1.90
2023-02-23T19:22:22.726Z,2.00
2023-02-23T19:24:49.589Z,2.10
2023-02-23T19:27:17.309Z,2.00
2023-02-23T19:29:45.409Z,2.00
2023-02-23T19:32:13.137Z,2.10
2023-02-23T19:34:40.124Z,2.10
2023-02-23T19:37:07.978Z,2.10
2023-02-23T19:39:35.431Z,2.10
2023-02-23T19:42:02.765Z,2.10
2023-02-23T19:44:29.890Z,2.20
2023-02-23T19:46:57.272Z,2.20
2023-02-23T19:49:24.644Z,2.20
2023-02-23T19:51:52.905Z,2.20
2023-02-23T19:54:20.170Z,2.20
2023-02-23T19:56:47.103Z,2.20
2023-02-23T19:59:14.523Z,2.20
2023-02-23T20:01:43.506Z,2.20
2023-02-23T20:04:10.408Z,2.20
2023-02-23T20:06:47.240Z,2.20
2023-02-23T20:09:14.602Z,2.20
2023-02-23T20:11:42.558Z,2.40
2023-02-23T20:14:09.782Z,2.20
2023-02-23T20:16:36.854Z,2.30
2023-02-23T20:19:05.565Z,2.30
2023-02-23T20:21:32.908Z,2.20
2023-02-23T20:24:01.594Z,2.20
2023-02-23T20:26:29.900Z,2.20
2023-02-23T20:28:57.574Z,2.20
2023-02-23T20:31:26.511Z,2.20
2023-02-23T20:33:53.965Z,2.20
2023-02-23T20:36:21.987Z,2.20
2023-02-23T20:38:48.932Z,2.30
2023-02-23T20:41:16.187Z,2.30
2023-02-23T20:43:43.834Z,2.30
2023-02-23T20:46:13.553Z,2.40
2023-02-23T20:48:40.486Z,2.30
2023-02-23T20:51:08.552Z,2.40
2023-02-23T20:53:35.372Z,2.40
2023-02-23T20:56:05.754Z,2.40
2023-02-23T20:58:33.051Z,2.40
2023-02-23T21:01:06.447Z,2.40
2023-02-23T21:03:34.397Z,2.40
2023-02-23T21:06:01.289Z,2.40
2023-02-23T21:08:28.934Z,2.50
2023-02-23T21:10:56.004Z,2.50
2023-02-23T21:13:23.219Z,2.50
2023-02-23T21:16:00.992Z,2.50
2023-02-23T21:18:28.201Z,2.50
2023-02-23T21:20:57.617Z,2.50
2023-02-23T21:23:25.139Z,3.80
2023-02-23T21:25:53.996Z,2.60
2023-02-23T21:28:20.912Z,2.60
2023-02-23T21:30:47.757Z,2.60
2023-02-23T21:33:15.414Z,2.60
2023-02-23T21:35:42.137Z,2.60
2023-02-23T21:38:10.451Z,2.70
2023-02-23T21:40:42.085Z,2.70
2023-02-23T21:43:09.217Z,2.70
2023-02-23T21:45:38.687Z,2.70
2023-02-23T21:48:05.434Z,2.70
2023-02-23T21:50:33.238Z,2.70
2023-02-23T21:52:59.939Z,2.70
2023-02-23T21:55:26.710Z,2.70
2023-02-23T21:57:53.501Z,2.70
2023-02-23T22:00:21.707Z,2.70
2023-02-23T22:02:49.254Z,2.70
2023-02-23T22:05:16.885Z,2.70
2023-02-23T22:07:53.512Z,2.80
2023-02-23T22:10:21.587Z,2.80
2023-02-23T22:12:50.216Z,2.80
2023-02-23T22:15:17.242Z,2.80
2023-02-23T22:17:44.065Z,2.90
2023-02-23T22:20:11.364Z,2.80
2023-02-23T22:22:38.103Z,2.80
2023-02-23T22:25:05.874Z,2.80
2023-02-23T22:27:32.763Z,2.90
2023-02-23T22:30:01.810Z,2.80
2023-02-23T22:32:32.697Z,2.90
2023-02-23T22:35:00.459Z,2.90
2023-02-23T22:37:29.858Z,2.90
2023-02-23T22:39:57.707Z,2.90
2023-02-23T22:42:24.571Z,2.80
2023-02-23T22:44:51.362Z,2.80
2023-02-23T22:47:18.136Z,2.80
2023-02-23T22:49:46.407Z,2.80
2023-02-23T22:52:13.160Z,2.80
2023-02-23T22:54:39.904Z,2.80
2023-02-23T22:57:06.705Z,2.70
2023-02-23T22:59:33.524Z,2.70
2023-02-23T23:02:00.315Z,2.70
2023-02-23T23:04:27.444Z,2.60
2023-02-23T23:06:54.266Z,2.60
2023-02-23T23:09:21.281Z,2.60
2023-02-23T23:11:50.850Z,2.70
2023-02-23T23:14:19.363Z,2.70
2023-02-23T23:16:51.930Z,2.80
2023-02-23T23:19:23.802Z,2.80
2023-02-23T23:22:00.416Z,2.80
2023-02-23T23:24:27.294Z,2.80
2023-02-23T23:27:00.126Z,2.90
2023-02-23T23:29:29.873Z,2.90
2023-02-23T23:32:01.038Z,2.90
2023-02-23T23:34:27.919Z,2.90
2023-02-23T23:36:55.551Z,3.00
2023-02-23T23:39:23.025Z,3.00
2023-02-23T23:41:50.175Z,3.00
2023-02-23T23:44:18.031Z,3.00
2023-02-23T23:46:45.571Z,3.00
2023-02-23T23:49:16.585Z,3.00
2023-02-23T23:51:45.312Z,3.00
2023-02-23T23:54:13.701Z,3.10
2023-02-23T23:56:40.983Z,3.10
2023-02-23T23:59:12.846Z,3.00
